Time;durP1;ratioP1;P1;durP2;ratioP2;P2;SDS_P1;SDS_P2;PMS_P1;PMS_P2;Temp;Humidity;BMP_temperature;BMP_pressure;BME280_temperature;BME280_humidity;BME280_pressure;Samples;Min_cycle;Max_cycle;Signal;HPM_P1;HPM_P2
2021/09/05 00:00:24;;;;;;;51.90;48.23;;;;;;;15.26;100.00;101955.66;1972102;73;32916;-70
2021/09/05 00:05:49;;;;;;;52.30;48.27;;;;;;;15.41;100.00;101953.30;1972161;73;33456;-67
2021/09/05 00:11:13;;;;;;;53.47;49.47;;;;;;;15.17;100.00;101964.39;1972143;73;33371;-70
2021/09/05 00:16:38;;;;;;;53.90;50.03;;;;;;;15.08;100.00;101962.48;1971873;72;33042;-72
2021/09/05 00:22:22;;;;;;;52.77;48.80;;;;;;;15.19;100.00;101972.51;1999099;71;32832;-72
2021/09/05 00:27:53;;;;;;;55.83;51.73;;;;;;;15.09;100.00;101967.80;1972169;73;33389;-72
2021/09/05 00:33:17;;;;;;;51.67;47.87;;;;;;;15.01;100.00;101969.80;1972154;73;33461;-71
2021/09/05 00:38:42;;;;;;;53.67;49.77;;;;;;;15.17;100.00;101972.78;1972134;73;33471;-71
2021/09/05 00:44:09;;;;;;;55.73;51.47;;;;;;;14.94;100.00;101965.06;1972163;73;33044;-68
2021/09/05 00:49:34;;;;;;;51.30;47.40;;;;;;;14.96;100.00;101967.03;1972168;73;32971;-69
2021/09/05 00:55:00;;;;;;;54.10;49.90;;;;;;;15.11;100.00;101968.33;1972185;73;33359;-69
2021/09/05 01:00:26;;;;;;;54.17;50.23;;;;;;;15.21;100.00;101972.48;1971921;73;32886;-72
2021/09/05 01:05:51;;;;;;;55.13;51.17;;;;;;;15.37;100.00;101959.21;1971936;73;32988;-69
2021/09/05 01:11:16;;;;;;;53.63;49.67;;;;;;;15.42;100.00;101961.98;1972162;73;33504;-70
2021/09/05 01:16:42;;;;;;;55.90;51.60;;;;;;;15.41;100.00;101955.54;1972164;73;33396;-69
2021/09/05 01:22:07;;;;;;;52.20;48.40;;;;;;;15.65;100.00;101964.09;1954624;73;33480;-69
2021/09/05 01:27:32;;;;;;;56.63;52.40;;;;;;;15.67;100.00;101963.22;1972106;73;33384;-69
2021/09/05 01:33:03;;;;;;;52.20;48.40;;;;;;;15.72;100.00;101965.15;1971939;73;32991;-71
2021/09/05 01:38:31;;;;;;;54.50;50.23;;;;;;;15.69;100.00;101968.55;1972148;73;33457;-71
2021/09/05 01:43:59;;;;;;;51.63;47.87;;;;;;;15.80;100.00;101962.55;1972173;73;33386;-69
2021/09/05 01:49:24;;;;;;;48.33;44.73;;;;;;;15.77;100.00;101958.95;1972175;73;33386;-71
2021/09/05 01:54:49;;;;;;;52.57;48.67;;;;;;;15.77;100.00;101958.95;1972141;73;32886;-69
2021/09/05 02:00:15;;;;;;;51.83;47.93;;;;;;;15.76;100.00;101965.67;1971888;73;32995;-69
2021/09/05 02:05:40;;;;;;;52.73;48.90;;;;;;;15.83;100.00;101968.96;1971949;73;32890;-69
2021/09/05 02:11:04;;;;;;;51.90;48.13;;;;;;;15.99;100.00;101954.83;1972072;73;33485;-69
2021/09/05 02:16:29;;;;;;;51.00;47.10;;;;;;;16.06;100.00;101959.52;1971918;73;32891;-69
2021/09/05 02:21:54;;;;;;;51.73;47.53;;;;;;;16.03;100.00;101962.36;1957229;73;32967;-69
2021/09/05 02:27:18;;;;;;;53.73;49.77;;;;;;;16.11;100.00;101957.51;1971859;73;32904;-71
2021/09/05 02:32:43;;;;;;;51.53;47.63;;;;;;;16.15;100.00;101967.00;1971994;73;33073;-69
2021/09/05 02:38:08;;;;;;;51.13;47.00;;;;;;;16.19;100.00;101962.47;1972104;73;32964;-70
2021/09/05 02:43:33;;;;;;;51.90;47.90;;;;;;;16.14;100.00;101968.69;1971876;73;32960;-69
2021/09/05 02:48:57;;;;;;;51.83;47.77;;;;;;;16.13;100.00;101958.03;1971908;73;32949;-71
2021/09/05 02:54:21;;;;;;;50.53;46.30;;;;;;;16.18;100.00;101955.19;1972173;73;32893;-67
2021/09/05 02:59:46;;;;;;;53.60;49.40;;;;;;;16.23;100.00;101966.34;1971997;73;33394;-72
2021/09/05 03:05:11;;;;;;;51.83;47.90;;;;;;;16.10;100.00;101961.44;1972131;73;33416;-71
2021/09/05 03:10:36;;;;;;;52.57;48.67;;;;;;;16.21;100.00;101953.77;1971876;73;32898;-71
2021/09/05 03:16:00;;;;;;;50.77;46.80;;;;;;;16.31;100.00;101953.08;1971904;73;32949;-69
2021/09/05 03:21:25;;;;;;;53.10;49.07;;;;;;;16.23;100.00;101950.09;1971889;73;32977;-71
2021/09/05 03:26:49;;;;;;;53.57;49.03;;;;;;;16.27;100.00;101949.77;1971880;73;32960;-69
2021/09/05 03:32:14;;;;;;;52.23;48.00;;;;;;;16.20;100.00;101951.53;1972144;73;33556;-71
2021/09/05 03:37:38;;;;;;;50.70;46.90;;;;;;;16.24;100.00;101949.80;1972106;73;33408;-69
2021/09/05 03:43:05;;;;;;;51.90;47.80;;;;;;;16.21;100.00;101946.77;1972131;73;33464;-69
2021/09/05 03:48:30;;;;;;;51.63;47.53;;;;;;;16.29;100.00;101951.72;1972186;73;31448;-70
2021/09/05 03:53:54;;;;;;;51.33;47.47;;;;;;;16.24;100.00;101952.61;1971972;73;32983;-71
2021/09/05 03:59:19;;;;;;;50.87;46.73;;;;;;;16.33;100.00;101948.03;1972105;73;32899;-70
2021/09/05 04:04:43;;;;;;;50.77;46.90;;;;;;;16.29;100.00;101945.55;1971909;73;32958;-71
2021/09/05 04:10:09;;;;;;;51.13;47.27;;;;;;;16.30;100.00;101945.80;1971914;73;32975;-71
2021/09/05 04:15:34;;;;;;;50.23;46.20;;;;;;;16.27;100.00;101939.95;1972126;73;33466;-70
2021/09/05 04:20:58;;;;;;;52.07;47.80;;;;;;;16.34;100.00;101945.47;1970443;71;33551;-71
2021/09/05 04:26:23;;;;;;;50.93;46.80;;;;;;;16.20;100.00;101947.89;1972122;73;31019;-69
2021/09/05 04:31:47;;;;;;;50.10;46.07;;;;;;;16.32;100.00;101946.91;1971910;73;31037;-69
2021/09/05 04:37:12;;;;;;;53.20;49.00;;;;;;;16.20;100.00;101959.94;1971910;73;32901;-69
2021/09/05 04:42:37;;;;;;;51.10;47.00;;;;;;;16.18;100.00;101949.58;1972096;73;32872;-69
2021/09/05 04:48:03;;;;;;;53.23;49.03;;;;;;;16.20;100.00;101954.89;1971975;73;32926;-71
2021/09/05 04:53:28;;;;;;;50.77;46.83;;;;;;;16.13;100.00;101965.64;1971978;73;32885;-71
2021/09/05 04:58:52;;;;;;;49.50;45.70;;;;;;;16.04;100.00;101963.20;1971898;73;32888;-71
2021/09/05 05:04:17;;;;;;;50.37;46.13;;;;;;;15.92;100.00;101970.56;1971924;73;32920;-69
2021/09/05 05:09:44;;;;;;;54.43;50.20;;;;;;;15.85;100.00;101965.87;1972143;73;33453;-69
2021/09/05 05:15:11;;;;;;;50.43;46.40;;;;;;;15.99;100.00;101976.69;1972148;73;32982;-73
2021/09/05 05:20:35;;;;;;;50.77;46.77;;;;;;;16.09;100.00;101983.58;1972154;73;33572;-67
2021/09/05 05:26:01;;;;;;;50.67;46.67;;;;;;;16.02;100.00;101990.66;1971960;73;32904;-70
2021/09/05 05:31:26;;;;;;;54.40;50.30;;;;;;;15.91;100.00;101986.58;1972052;73;32931;-71
2021/09/05 05:36:50;;;;;;;54.63;50.63;;;;;;;16.00;100.00;101999.95;1972164;72;33476;-67
2021/09/05 05:42:15;;;;;;;54.03;49.73;;;;;;;15.90;100.00;102004.51;1971981;73;33011;-71
2021/09/05 05:47:40;;;;;;;53.47;49.43;;;;;;;15.92;100.00;102003.64;1971997;73;32897;-70
2021/09/05 05:53:06;;;;;;;53.73;49.60;;;;;;;15.96;100.00;102005.28;1971943;73;32891;-69
2021/09/05 05:58:30;;;;;;;55.17;50.90;;;;;;;15.96;100.00;102014.28;1972204;73;31486;-71
2021/09/05 06:03:55;;;;;;;53.43;49.27;;;;;;;15.95;100.00;102007.84;1972171;73;33408;-69
2021/09/05 06:09:20;;;;;;;56.77;52.17;;;;;;;15.97;100.00;102015.93;1971899;73;32985;-72
2021/09/05 06:14:44;;;;;;;55.70;51.43;;;;;;;15.93;100.00;102012.32;1971906;73;32903;-69
2021/09/05 06:20:11;;;;;;;56.63;52.13;;;;;;;16.00;100.00;102019.01;1972154;73;33453;-69
2021/09/05 06:25:37;;;;;;;56.00;51.37;;;;;;;16.08;100.00;102017.53;1972276;73;33413;-68
2021/09/05 06:31:02;;;;;;;55.67;51.17;;;;;;;16.09;100.00;102022.02;1971955;73;32935;-71
2021/09/05 06:36:27;;;;;;;59.33;54.20;;;;;;;16.31;100.00;102029.36;1972182;73;32905;-71
2021/09/05 06:41:51;;;;;;;58.70;53.20;;;;;;;16.37;100.00;102030.99;1972078;73;31010;-71
2021/09/05 06:47:16;;;;;;;59.63;54.77;;;;;;;16.30;100.00;102027.70;1971873;73;32977;-69
2021/09/05 06:52:42;;;;;;;57.23;51.93;;;;;;;16.33;100.00;102039.16;1971938;73;32974;-72
2021/09/05 06:58:07;;;;;;;62.97;56.97;;;;;;;16.44;100.00;102044.66;1972159;73;33391;-72
2021/09/05 07:03:31;;;;;;;60.93;55.77;;;;;;;16.43;100.00;102050.02;1972058;73;32966;-68
2021/09/05 07:09:02;;;;;;;61.60;56.10;;;;;;;16.65;100.00;102057.37;1972026;73;31008;-71
2021/09/05 07:14:26;;;;;;;60.67;55.07;;;;;;;16.72;100.00;102063.48;1971950;73;30996;-70
2021/09/05 07:19:51;;;;;;;64.27;57.83;;;;;;;16.76;100.00;102071.02;1972149;73;33497;-72
2021/09/05 07:25:15;;;;;;;64.80;58.47;;;;;;;16.82;100.00;102072.62;1971931;73;32968;-71
2021/09/05 07:30:40;;;;;;;64.00;57.60;;;;;;;16.88;100.00;102081.83;1971937;73;30987;-70
2021/09/05 07:36:05;;;;;;;65.40;58.90;;;;;;;16.88;100.00;102082.39;1971943;73;32908;-74
2021/09/05 07:41:29;;;;;;;63.03;57.10;;;;;;;16.91;100.00;102080.38;1972167;73;31462;-70
2021/09/05 07:46:54;;;;;;;63.90;57.63;;;;;;;17.04;100.00;102087.52;1972165;73;32975;-75
2021/09/05 07:52:19;;;;;;;63.87;57.47;;;;;;;17.04;100.00;102084.72;1972307;73;31549;-71
2021/09/05 07:57:44;;;;;;;63.60;57.03;;;;;;;17.14;100.00;102090.23;1972017;73;32902;-75
2021/09/05 08:03:10;;;;;;;62.00;55.57;;;;;;;17.22;100.00;102095.17;1971866;73;32983;-75
2021/09/05 08:08:36;;;;;;;60.83;54.93;;;;;;;17.33;100.00;102099.27;1971855;73;30930;-73
2021/09/05 08:14:01;;;;;;;63.10;56.77;;;;;;;17.38;100.00;102097.78;1972145;73;31012;-75
2021/09/05 08:19:26;;;;;;;63.00;56.60;;;;;;;17.41;100.00;102095.80;1972156;73;33452;-74
2021/09/05 08:24:50;;;;;;;58.87;52.50;;;;;;;17.65;100.00;102102.23;1972114;72;33424;-71
2021/09/05 08:30:15;;;;;;;62.17;56.17;;;;;;;17.61;100.00;102107.63;1972305;73;30956;-75
2021/09/05 08:36:00;;;;;;;61.53;55.07;;;;;;;17.63;100.00;102112.92;2016424;71;30846;-75
2021/09/05 08:41:27;;;;;;;63.40;56.53;;;;;;;17.94;100.00;102107.70;1971988;73;31022;-71
2021/09/05 08:46:53;;;;;;;66.27;59.27;;;;;;;17.98;100.00;102083.45;1971895;73;31106;-75
2021/09/05 08:52:19;;;;;;;61.13;55.13;;;;;;;18.24;100.00;102099.34;1971973;73;30992;-77
2021/09/05 08:57:44;;;;;;;62.60;56.17;;;;;;;18.47;100.00;102102.62;1971956;73;30957;-72
2021/09/05 09:03:13;;;;;;;69.13;62.30;;;;;;;18.46;100.00;102113.61;1971993;73;30934;-69
2021/09/05 09:08:38;;;;;;;68.93;62.33;;;;;;;18.70;100.00;102120.55;1972166;73;31017;-72
2021/09/05 09:14:03;;;;;;;70.33;63.57;;;;;;;18.78;100.00;102126.88;1972154;73;31555;-76
2021/09/05 09:19:32;;;;;;;73.03;66.23;;;;;;;18.87;100.00;102119.39;1971895;73;31096;-75
2021/09/05 09:24:55;;;;;;;72.43;65.70;;;;;;;19.17;100.00;102123.59;1972181;73;31590;-71
2021/09/05 09:30:22;;;;;;;67.33;61.10;;;;;;;19.38;100.00;102122.02;1972149;73;31484;-69
2021/09/05 09:35:51;;;;;;;69.97;63.57;;;;;;;19.58;100.00;102113.73;1972209;73;31535;-75
2021/09/05 09:41:17;;;;;;;80.27;73.57;;;;;;;19.64;100.00;102113.89;1971929;73;30947;-68
2021/09/05 09:46:46;;;;;;;58.13;53.23;;;;;;;19.72;100.00;102113.98;1972199;73;31453;-76
2021/09/05 09:52:11;;;;;;;66.73;60.47;;;;;;;19.84;100.00;102096.50;1972193;73;31445;-69
2021/09/05 09:57:37;;;;;;;67.30;60.73;;;;;;;20.10;100.00;102108.85;1972126;73;31424;-76
2021/09/05 10:03:06;;;;;;;68.87;62.30;;;;;;;19.95;100.00;102109.20;1972194;73;33433;-72
2021/09/05 10:08:34;;;;;;;71.23;65.33;;;;;;;19.84;100.00;102117.08;1972177;73;31462;-71
2021/09/05 10:14:00;;;;;;;70.73;64.60;;;;;;;19.79;100.00;102114.94;1972150;73;30997;-71
2021/09/05 10:19:26;;;;;;;75.10;68.93;;;;;;;20.10;100.00;102098.14;1972098;73;33487;-74
2021/09/05 10:24:52;;;;;;;69.27;63.17;;;;;;;20.41;100.00;102096.23;1971871;73;30981;-75
2021/09/05 10:30:25;;;;;;;69.40;63.13;;;;;;;20.43;100.00;102091.12;1972241;73;31529;-69
2021/09/05 10:35:51;;;;;;;71.43;64.97;;;;;;;20.62;100.00;102081.03;1972214;73;31562;-74
2021/09/05 10:41:26;;;;;;;71.13;64.33;;;;;;;20.69;100.00;102078.00;1971978;73;31015;-70
2021/09/05 10:47:11;;;;;;;71.43;64.73;;;;;;;20.89;100.00;102063.87;1972209;73;31509;-71
2021/09/05 10:52:49;;;;;;;64.53;58.60;;;;;;;20.90;100.00;102070.63;1972222;73;31044;-69
2021/09/05 10:58:17;;;;;;;66.83;61.03;;;;;;;20.98;100.00;102062.50;1972159;73;31064;-69
2021/09/05 11:04:38;;;;;;;65.62;60.35;;;;;;;21.15;100.00;102060.61;1971921;73;30940;-76
2021/09/05 11:10:05;;;;;;;65.52;59.90;;;;;;;21.20;100.00;102060.47;1972179;73;31282;-69
2021/09/05 11:15:32;;;;;;;65.57;59.87;;;;;;;21.26;100.00;102054.09;1971995;73;30931;-77
2021/09/05 11:20:56;;;;;;;66.30;60.60;;;;;;;21.27;100.00;102049.50;1968648;73;30984;-74
2021/09/05 11:26:21;;;;;;;57.83;53.67;;;;;;;21.39;100.00;102048.89;1971960;72;31023;-76
2021/09/05 11:31:48;;;;;;;67.12;61.85;;;;;;;21.49;100.00;102047.14;1971976;73;30939;-72
2021/09/05 11:37:12;;;;;;;54.85;50.83;;;;;;;21.53;100.00;102037.41;1972010;73;30932;-74
2021/09/05 11:42:40;;;;;;;62.65;57.43;;;;;;;21.57;100.00;102037.00;1971983;73;31047;-71
2021/09/05 11:48:08;;;;;;;59.00;54.27;;;;;;;21.64;100.00;102043.02;1971974;73;30966;-76
2021/09/05 11:53:34;;;;;;;62.47;57.30;;;;;;;21.61;100.00;102037.42;1972136;73;30933;-70
2021/09/05 11:59:06;;;;;;;60.00;54.83;;;;;;;21.78;100.00;102033.19;1971939;73;31013;-74
2021/09/05 12:04:31;;;;;;;48.03;44.83;;;;;;;21.86;100.00;102034.95;1971982;73;31014;-73
2021/09/05 12:10:09;;;;;;;60.88;55.88;;;;;;;21.95;100.00;102036.63;1972003;73;31066;-73
2021/09/05 12:15:38;;;;;;;65.53;59.53;;;;;;;21.85;100.00;102027.05;1972116;73;30957;-71
2021/09/05 12:21:13;;;;;;;47.33;44.03;;;;;;;21.82;100.00;102029.14;1971949;73;31010;-74
2021/09/05 12:26:40;;;;;;;53.93;49.53;;;;;;;21.35;100.00;102027.48;1972159;73;31494;-70
2021/09/05 12:32:06;;;;;;;59.33;54.03;;;;;;;21.58;100.00;102025.95;1971985;73;31013;-76
2021/09/05 12:37:38;;;;;;;42.60;39.65;;;;;;;21.99;100.00;102028.33;1971983;73;31051;-69
2021/09/05 12:43:13;;;;;;;55.00;50.33;;;;;;;22.00;100.00;102028.56;1971961;73;30939;-72
2021/09/05 12:48:50;;;;;;;41.33;38.53;;;;;;;21.86;100.00;102023.06;1971954;73;30938;-74
2021/09/05 12:54:16;;;;;;;53.60;49.20;;;;;;;21.72;100.00;102021.81;1971960;73;30970;-69
2021/09/05 12:59:41;;;;;;;42.78;39.73;;;;;;;22.07;100.00;102022.66;1972081;73;31008;-74
2021/09/05 13:05:07;;;;;;;53.98;49.27;;;;;;;21.83;100.00;102022.87;1972225;73;30955;-74
2021/09/05 13:10:33;;;;;;;54.37;49.67;;;;;;;21.91;100.00;102014.97;1972191;73;31072;-69
2021/09/05 13:15:58;;;;;;;43.25;40.23;;;;;;;22.19;100.00;102017.15;1972212;73;31429;-70
2021/09/05 13:21:24;;;;;;;41.83;38.67;;;;;;;22.04;100.00;102012.58;1963558;73;30975;-70
2021/09/05 13:26:48;;;;;;;50.58;46.50;;;;;;;21.86;100.00;102005.25;1972195;73;31558;-76
2021/09/05 13:32:13;;;;;;;44.20;40.88;;;;;;;21.86;100.00;102003.84;1972195;73;31551;-69
2021/09/05 13:37:39;;;;;;;43.48;40.35;;;;;;;21.79;100.00;102002.91;1972189;73;31560;-69
2021/09/05 13:43:05;;;;;;;42.73;39.73;;;;;;;21.81;100.00;102009.08;1972190;73;31566;-70
2021/09/05 13:48:33;;;;;;;48.98;45.63;;;;;;;21.78;100.00;102007.73;1972041;73;30977;-73
2021/09/05 13:53:57;;;;;;;53.45;48.90;;;;;;;21.88;100.00;102004.32;1972019;73;31052;-73
2021/09/05 13:59:22;;;;;;;47.10;43.92;;;;;;;21.84;100.00;102001.33;1972191;73;31054;-74
2021/09/05 14:04:46;;;;;;;41.88;38.78;;;;;;;21.93;100.00;101990.88;1972190;73;31454;-70
2021/09/05 14:10:13;;;;;;;44.90;41.75;;;;;;;21.91;100.00;101985.25;1971947;73;31059;-74
2021/09/05 14:15:38;;;;;;;44.20;41.15;;;;;;;21.88;100.00;101988.19;1972221;73;31116;-76
2021/09/05 14:21:05;;;;;;;42.43;39.40;;;;;;;22.00;100.00;101992.61;1972185;73;31764;-76
2021/09/05 14:26:31;;;;;;;42.85;40.05;;;;;;;22.00;100.00;101989.77;1971990;73;31094;-76
2021/09/05 14:32:01;;;;;;;42.98;40.00;;;;;;;22.02;100.00;101992.28;1971986;73;30982;-72
2021/09/05 14:49:37;;;;;;;42.90;39.90;;;;;;;22.02;100.00;101990.28;1972181;73;31038;-73
2021/09/05 14:55:01;;;;;;;44.00;40.73;;;;;;;22.09;100.00;101994.01;1972086;73;31529;-72
2021/09/05 15:00:26;;;;;;;52.00;47.83;;;;;;;22.62;100.00;102001.45;1972111;73;31441;-73
2021/09/05 15:06:06;;;;;;;50.15;45.98;;;;;;;23.11;100.00;101998.48;1972131;73;31024;-72
2021/09/05 15:11:21;;;;;;;50.05;46.33;;;;;;;22.76;100.00;101991.94;1972197;73;31019;-72
2021/09/05 15:16:45;;;;;;;48.08;44.08;;;;;;;22.57;100.00;101986.64;1972240;73;31057;-70
2021/09/05 15:22:15;;;;;;;46.05;42.60;;;;;;;23.12;100.00;101986.56;1954058;73;30989;-74
2021/09/05 15:27:37;;;;;;;47.85;44.35;;;;;;;22.94;100.00;101990.66;1971906;73;31025;-71
2021/09/05 15:33:26;;;;;;;45.05;41.70;;;;;;;23.36;100.00;101986.72;1972016;73;31152;-74
2021/09/05 15:56:03;;;;;;;46.02;42.50;;;;;;;23.40;100.00;101987.73;1971997;73;30963;-70
2021/09/05 16:01:33;;;;;;;42.95;39.75;;;;;;;23.56;100.00;101984.55;1971966;73;31105;-71
2021/09/05 16:18:22;;;;;;;46.28;42.50;;;;;;;23.48;100.00;101991.12;1971989;73;30955;-69
2021/09/05 16:23:46;;;;;;;46.35;42.80;;;;;;;23.11;100.00;101997.06;1972173;73;31476;-73
2021/09/05 16:29:15;;;;;;;49.13;45.40;;;;;;;23.06;100.00;102004.95;1972227;73;31175;-72
2021/09/05 16:34:49;;;;;;;47.05;43.55;;;;;;;22.99;100.00;102003.22;1971941;73;31105;-69
2021/09/05 16:40:29;;;;;;;45.12;41.75;;;;;;;23.13;100.00;102002.41;1971940;73;30976;-69
2021/09/05 16:45:56;;;;;;;47.45;43.75;;;;;;;23.40;100.00;102002.48;1972207;73;31450;-69
2021/09/05 16:51:20;;;;;;;46.95;43.52;;;;;;;23.35;100.00;102001.27;1971964;73;30993;-72
2021/09/05 16:56:45;;;;;;;48.42;44.77;;;;;;;23.30;100.00;102000.05;1971953;72;30965;-69
2021/09/05 17:02:09;;;;;;;45.28;41.85;;;;;;;23.40;100.00;102008.16;1972016;73;31038;-69
2021/09/05 17:07:47;;;;;;;47.73;44.35;;;;;;;23.40;100.00;102015.25;1972033;73;30958;-80
2021/09/05 17:13:12;;;;;;;47.35;43.90;;;;;;;23.30;100.00;102016.48;1972178;73;31489;-82
2021/09/05 17:18:39;;;;;;;49.77;46.02;;;;;;;23.17;100.00;102025.22;1971958;73;31062;-81
2021/09/05 17:24:04;;;;;;;48.68;45.10;;;;;;;23.05;100.00;102022.55;1972069;73;31045;-78
2021/09/05 17:29:29;;;;;;;46.53;43.33;;;;;;;23.09;100.00;102030.61;1971855;73;31168;-73
2021/09/05 17:34:54;;;;;;;46.10;42.70;;;;;;;23.10;100.00;102035.08;1971881;73;31064;-79
2021/09/05 17:40:19;;;;;;;46.00;42.80;;;;;;;23.11;100.00;102034.50;1971921;73;31143;-80
2021/09/05 17:45:43;;;;;;;47.75;44.45;;;;;;;23.07;100.00;102032.11;1972096;73;30997;-72
2021/09/05 17:51:08;;;;;;;49.80;46.25;;;;;;;22.97;100.00;102038.17;1972051;73;31112;-73
2021/09/05 17:56:33;;;;;;;48.83;45.28;;;;;;;22.84;100.00;102047.73;1971901;73;31004;-78
2021/09/05 18:01:57;;;;;;;50.45;46.73;;;;;;;22.72;100.00;102046.20;1972143;73;31602;-72
2021/09/05 18:07:24;;;;;;;52.15;48.20;;;;;;;22.59;100.00;102049.46;1972203;73;31447;-72
2021/09/05 18:12:50;;;;;;;49.98;46.30;;;;;;;22.40;100.00;102053.23;1972191;73;31538;-72
2021/09/05 18:18:15;;;;;;;52.70;48.90;;;;;;;22.19;100.00;102058.19;1971886;73;31070;-77
2021/09/05 18:23:41;;;;;;;52.53;48.63;;;;;;;21.98;100.00;102064.28;1971935;73;31002;-74
2021/09/05 18:29:05;;;;;;;52.60;49.00;;;;;;;21.78;100.00;102064.88;1971859;73;30961;-75
2021/09/05 18:34:30;;;;;;;56.63;52.50;;;;;;;21.57;100.00;102064.70;1971996;72;30996;-73
2021/09/05 18:39:54;;;;;;;56.75;52.88;;;;;;;21.49;100.00;102078.82;1971860;73;30940;-72
2021/09/05 18:45:20;;;;;;;59.95;55.95;;;;;;;21.36;100.00;102086.27;1971951;73;30990;-73
2021/09/05 18:50:44;;;;;;;60.95;56.75;;;;;;;21.23;100.00;102092.88;1971917;73;31053;-71
2021/09/05 18:56:10;;;;;;;61.18;56.98;;;;;;;20.70;100.00;102095.20;1972136;73;31584;-74
2021/09/05 19:01:35;;;;;;;63.42;58.83;;;;;;;20.58;100.00;102113.89;1972069;73;30970;-75
2021/09/05 19:06:59;;;;;;;65.00;60.27;;;;;;;20.41;100.00;102118.81;1972058;73;30934;-78
2021/09/05 19:12:25;;;;;;;61.10;56.88;;;;;;;20.38;100.00;102131.59;1972011;73;30947;-77
2021/09/05 19:17:51;;;;;;;63.23;58.90;;;;;;;20.30;100.00;102139.99;1972189;73;31006;-73
2021/09/05 19:23:19;;;;;;;64.47;60.00;;;;;;;20.03;100.00;102150.75;1937361;74;31491;-74
2021/09/05 19:28:44;;;;;;;68.10;62.97;;;;;;;20.02;100.00;102154.75;1972184;72;31608;-77
2021/09/05 19:34:08;;;;;;;67.17;62.47;;;;;;;19.85;100.00;102156.80;1971930;73;30999;-72
2021/09/05 19:39:34;;;;;;;65.57;60.70;;;;;;;19.75;100.00;102170.30;1972103;73;31059;-72
2021/09/05 19:44:58;;;;;;;67.30;62.50;;;;;;;19.75;100.00;102169.73;1972180;73;31103;-75
2021/09/05 19:50:25;;;;;;;68.87;63.70;;;;;;;19.83;100.00;102168.14;1972269;73;31622;-78
2021/09/05 19:55:50;;;;;;;63.43;58.70;;;;;;;19.79;100.00;102165.70;1972173;73;31441;-73
2021/09/05 20:01:14;;;;;;;60.60;56.00;;;;;;;19.79;100.00;102172.75;1972008;73;31464;-76
2021/09/05 20:06:39;;;;;;;64.53;59.93;;;;;;;19.69;100.00;102177.19;1972222;73;31539;-76
2021/09/05 20:12:04;;;;;;;66.17;61.10;;;;;;;19.66;100.00;102174.44;1972182;72;31463;-77
2021/09/05 20:17:30;;;;;;;61.93;57.13;;;;;;;19.61;100.00;102175.95;1972133;73;30959;-79
2021/09/05 20:22:54;;;;;;;63.60;58.83;;;;;;;19.54;100.00;102178.36;1971901;73;30970;-75
2021/09/05 20:28:20;;;;;;;61.80;57.30;;;;;;;19.49;100.00;102177.05;1972097;73;31454;-75
2021/09/05 20:33:46;;;;;;;59.00;54.60;;;;;;;19.26;100.00;102190.72;1971945;73;30941;-75
2021/09/05 20:39:10;;;;;;;58.77;54.57;;;;;;;19.21;100.00;102185.20;1972133;73;31554;-76
2021/09/05 20:44:36;;;;;;;56.97;52.87;;;;;;;19.15;100.00;102192.06;1972033;73;30943;-81
2021/09/05 20:50:06;;;;;;;56.27;52.03;;;;;;;18.91;100.00;102193.64;1972240;72;31479;-77
2021/09/05 20:55:52;;;;;;;58.30;53.87;;;;;;;18.89;100.00;102201.55;2007799;71;30888;-80
2021/09/05 21:01:16;;;;;;;57.73;53.43;;;;;;;18.88;100.00;102209.73;1972144;73;31010;-76
2021/09/05 21:06:45;;;;;;;59.80;55.40;;;;;;;18.79;100.00;102212.98;1972053;72;30919;-83
2021/09/05 21:12:11;;;;;;;62.03;57.53;;;;;;;18.66;100.00;102213.20;1972148;73;30926;-75
2021/09/05 21:17:38;;;;;;;58.90;54.73;;;;;;;18.52;100.00;102211.75;1972164;73;31502;-74
2021/09/05 21:23:05;;;;;;;59.17;54.53;;;;;;;18.38;100.00;102208.56;1972147;73;31478;-74
2021/09/05 21:28:30;;;;;;;60.30;55.70;;;;;;;18.35;100.00;102214.24;1971946;73;31046;-76
2021/09/05 21:34:01;;;;;;;59.70;55.30;;;;;;;18.19;100.00;102222.61;1972129;72;31054;-75
2021/09/05 21:39:26;;;;;;;60.27;55.63;;;;;;;18.31;100.00;102230.06;1971912;73;30943;-76
2021/09/05 21:45:20;;;;;;;60.53;55.83;;;;;;;18.20;100.00;102229.36;2014602;71;30898;-76
2021/09/05 21:51:09;;;;;;;56.80;52.43;;;;;;;18.08;100.00;102240.78;1934385;73;31109;-75
2021/09/05 21:56:41;;;;;;;58.53;53.93;;;;;;;18.03;100.00;102237.47;1972144;73;30959;-77
2021/09/05 22:02:09;;;;;;;57.97;53.27;;;;;;;18.08;100.00;102232.34;1972123;73;31014;-74
2021/09/05 22:07:44;;;;;;;60.43;55.43;;;;;;;17.90;100.00;102239.61;1971788;73;30968;-77
2021/09/05 22:13:14;;;;;;;61.60;56.40;;;;;;;18.01;100.00;102243.95;1972131;73;31013;-76
2021/09/05 22:18:40;;;;;;;62.23;57.17;;;;;;;17.82;100.00;102252.92;1971912;73;31004;-74
2021/09/05 22:24:06;;;;;;;58.77;53.87;;;;;;;17.84;100.00;102248.42;1971923;73;31034;-75
2021/09/05 22:29:31;;;;;;;58.83;53.83;;;;;;;17.59;100.00;102250.95;1971936;73;30946;-75
2021/09/05 22:34:56;;;;;;;61.53;56.23;;;;;;;17.49;100.00;102256.11;1972133;73;31035;-74
2021/09/05 22:40:28;;;;;;;62.70;57.23;;;;;;;17.66;100.00;102264.94;1971920;73;30995;-75
2021/09/05 22:45:50;;;;;;;63.10;57.87;;;;;;;17.66;100.00;102266.91;1972048;73;31038;-76
2021/09/05 22:51:15;;;;;;;61.27;56.13;;;;;;;17.47;100.00;102265.38;1972226;73;30937;-77
2021/09/05 22:56:46;;;;;;;64.50;58.40;;;;;;;17.32;100.00;102264.71;2023642;71;30956;-76
2021/09/05 23:02:14;;;;;;;63.57;57.77;;;;;;;17.25;100.00;102271.50;1971980;73;30922;-74
2021/09/05 23:07:39;;;;;;;61.80;56.27;;;;;;;17.30;100.00;102269.21;1971960;73;30994;-74
2021/09/05 23:13:06;;;;;;;65.90;59.80;;;;;;;17.24;100.00;102278.24;1971975;73;31028;-74
2021/09/05 23:18:31;;;;;;;62.00;56.20;;;;;;;17.35;100.00;102271.13;1971915;73;30947;-74
2021/09/05 23:23:56;;;;;;;62.63;56.93;;;;;;;17.16;100.00;102280.29;1972175;73;31533;-75
2021/09/05 23:29:20;;;;;;;63.43;57.43;;;;;;;17.23;100.00;102272.94;1972111;73;31506;-74
2021/09/05 23:34:48;;;;;;;64.67;58.13;;;;;;;17.37;100.00;102273.91;1971904;73;31028;-74
2021/09/05 23:40:13;;;;;;;63.20;57.33;;;;;;;17.25;100.00;102288.91;1971896;73;32922;-75
2021/09/05 23:45:39;;;;;;;63.83;57.70;;;;;;;17.17;100.00;102290.95;1972160;73;33566;-74
2021/09/05 23:51:04;;;;;;;59.30;53.73;;;;;;;17.07;100.00;102291.88;1971929;73;32980;-75
2021/09/05 23:56:29;;;;;;;63.27;57.33;;;;;;;17.02;100.00;102294.76;1972107;73;33446;-74
